createdAt,value
2023-12-28T00:00:47.704Z,2.29
2023-12-28T00:01:47.740Z,2.31
2023-12-28T00:02:47.658Z,2.30
2023-12-28T00:03:47.799Z,2.31
2023-12-28T00:04:47.741Z,2.36
2023-12-28T00:05:47.864Z,2.39
2023-12-28T00:06:47.855Z,2.40
2023-12-28T00:07:47.896Z,2.12
2023-12-28T00:08:56.650Z,1.94
2023-12-28T00:09:48.973Z,1.88
2023-12-28T00:10:47.942Z,1.90
2023-12-28T00:11:47.936Z,1.94
2023-12-28T00:12:48.007Z,2.00
2023-12-28T00:13:48.457Z,2.06
2023-12-28T00:14:47.933Z,2.08
2023-12-28T00:15:48.028Z,2.10
2023-12-28T00:16:47.968Z,2.14
2023-12-28T00:17:48.019Z,2.12
2023-12-28T00:18:48.017Z,2.16
2023-12-28T00:19:48.044Z,2.21
2023-12-28T00:20:47.962Z,2.28
2023-12-28T00:21:48.065Z,2.27
2023-12-28T00:22:47.965Z,2.29
2023-12-28T00:23:47.970Z,2.27
2023-12-28T00:24:48.024Z,2.23
2023-12-28T00:25:48.068Z,2.28
2023-12-28T00:26:48.097Z,2.32
2023-12-28T00:27:48.283Z,2.33
2023-12-28T00:28:48.226Z,2.32
2023-12-28T00:29:48.243Z,2.27
2023-12-28T00:30:48.386Z,2.23
2023-12-28T00:31:48.323Z,2.18
2023-12-28T00:32:48.427Z,2.17
2023-12-28T00:33:48.565Z,2.17
2023-12-28T00:34:48.504Z,2.16
2023-12-28T00:35:48.443Z,2.18
2023-12-28T00:36:48.554Z,2.19
2023-12-28T00:37:48.499Z,2.22
2023-12-28T00:38:48.510Z,2.23
2023-12-28T00:39:48.641Z,2.23
2023-12-28T00:40:48.623Z,2.21
2023-12-28T00:41:48.681Z,2.21
2023-12-28T00:42:48.738Z,2.19
2023-12-28T00:43:48.730Z,2.18
2023-12-28T00:44:48.763Z,2.13
2023-12-28T00:45:48.873Z,2.12
2023-12-28T00:46:48.793Z,2.14
2023-12-28T00:47:48.888Z,2.23
2023-12-28T00:48:49.037Z,2.28
2023-12-28T00:49:49.048Z,2.30
2023-12-28T00:50:48.970Z,2.28
2023-12-28T00:51:49.074Z,2.29
2023-12-28T00:52:49.035Z,2.28
2023-12-28T00:53:49.087Z,2.27
2023-12-28T00:54:49.224Z,2.25
2023-12-28T00:55:49.198Z,2.19
2023-12-28T00:56:49.271Z,2.23
2023-12-28T00:57:49.336Z,2.24
2023-12-28T00:58:49.337Z,2.27
2023-12-28T00:59:49.359Z,2.17
2023-12-28T01:00:49.494Z,2.07
2023-12-28T01:01:49.472Z,2.07
2023-12-28T01:02:49.506Z,2.05
2023-12-28T01:03:49.636Z,2.05
2023-12-28T01:04:49.665Z,2.03
2023-12-28T01:05:49.676Z,1.99
2023-12-28T01:06:49.733Z,2.01
2023-12-28T01:07:49.756Z,1.97
2023-12-28T01:08:49.817Z,1.94
2023-12-28T01:09:49.951Z,1.92
2023-12-28T01:10:49.896Z,1.90
2023-12-28T01:11:49.936Z,1.83
2023-12-28T01:12:50.128Z,1.83
2023-12-28T01:13:50.030Z,1.87
2023-12-28T01:14:50.095Z,1.90
2023-12-28T01:15:50.196Z,1.92
2023-12-28T01:16:50.149Z,1.90
2023-12-28T01:17:50.281Z,1.85
2023-12-28T01:18:50.379Z,1.85
2023-12-28T01:19:50.445Z,1.84
2023-12-28T01:20:50.285Z,1.85
2023-12-28T01:21:50.359Z,1.86
2023-12-28T01:22:50.362Z,1.82
2023-12-28T01:23:50.398Z,1.81
2023-12-28T01:24:50.439Z,1.75
2023-12-28T01:25:50.409Z,1.75
2023-12-28T01:26:50.425Z,1.76
2023-12-28T01:27:50.597Z,1.82
2023-12-28T01:28:50.520Z,1.86
2023-12-28T01:29:50.601Z,1.90
2023-12-28T01:30:50.720Z,1.83
2023-12-28T01:31:50.707Z,1.62
2023-12-28T01:32:50.799Z,1.34
2023-12-28T01:33:50.998Z,1.25
2023-12-28T01:34:51.142Z,1.25
2023-12-28T01:35:50.951Z,1.34
2023-12-28T01:36:51.058Z,1.41
2023-12-28T01:37:51.065Z,1.45
2023-12-28T01:38:51.151Z,1.48
2023-12-28T01:39:51.257Z,1.51
2023-12-28T01:40:51.890Z,1.52
2023-12-28T01:41:51.292Z,1.55
2023-12-28T01:42:51.411Z,1.59
2023-12-28T01:43:51.410Z,1.63
2023-12-28T01:44:51.484Z,1.67
2023-12-28T01:45:51.594Z,1.71
2023-12-28T01:46:51.566Z,1.76
2023-12-28T01:47:51.733Z,1.75
2023-12-28T01:48:52.261Z,1.62
2023-12-28T01:49:51.841Z,1.48
2023-12-28T01:50:51.750Z,1.35
2023-12-28T01:51:51.870Z,1.27
2023-12-28T01:52:51.786Z,1.28
2023-12-28T01:53:51.870Z,1.31
2023-12-28T01:54:51.996Z,1.33
2023-12-28T01:55:51.953Z,1.35
2023-12-28T01:56:52.021Z,1.39
2023-12-28T01:57:52.183Z,1.43
2023-12-28T01:58:52.111Z,1.46
2023-12-28T01:59:52.141Z,1.47
2023-12-28T02:00:52.382Z,1.42
2023-12-28T02:01:52.270Z,1.43
2023-12-28T02:02:52.325Z,1.43
2023-12-28T02:03:52.491Z,1.43
2023-12-28T02:04:52.422Z,1.47
2023-12-28T02:05:52.500Z,1.50
2023-12-28T02:06:52.575Z,1.54
2023-12-28T02:07:52.541Z,1.55
2023-12-28T02:08:52.546Z,1.57
2023-12-28T02:09:52.651Z,1.57
2023-12-28T02:10:52.612Z,1.55
2023-12-28T02:11:52.685Z,1.54
2023-12-28T02:12:52.829Z,1.58
2023-12-28T02:13:52.807Z,1.54
2023-12-28T02:14:52.813Z,1.51
2023-12-28T02:15:52.964Z,1.51
2023-12-28T02:16:52.954Z,1.49
2023-12-28T02:17:53.017Z,1.46
2023-12-28T02:18:53.146Z,1.51
2023-12-28T02:19:53.088Z,1.59
2023-12-28T02:20:53.161Z,1.62
2023-12-28T02:21:53.288Z,1.63
2023-12-28T02:22:53.192Z,1.63
2023-12-28T02:23:53.278Z,1.62
2023-12-28T02:24:53.368Z,1.50
2023-12-28T02:25:53.336Z,1.42
2023-12-28T02:26:53.360Z,1.37
2023-12-28T02:27:53.530Z,1.33
2023-12-28T02:28:53.522Z,1.37
2023-12-28T02:29:53.547Z,1.42
2023-12-28T02:30:53.657Z,1.42
2023-12-28T02:31:53.641Z,1.45
2023-12-28T02:32:53.767Z,1.43
2023-12-28T02:33:53.821Z,1.42
2023-12-28T02:34:53.793Z,1.35
2023-12-28T02:35:53.884Z,1.32
2023-12-28T02:36:53.932Z,1.31
2023-12-28T02:37:53.984Z,1.29
2023-12-28T02:38:54.022Z,1.32
2023-12-28T02:39:54.156Z,1.32
2023-12-28T02:40:54.130Z,1.33
2023-12-28T02:41:54.108Z,1.30
2023-12-28T02:42:54.257Z,1.30
2023-12-28T02:43:54.220Z,1.33
2023-12-28T02:44:54.220Z,1.26
2023-12-28T02:45:54.368Z,1.21
2023-12-28T02:46:54.304Z,1.15
2023-12-28T02:47:54.407Z,1.16
2023-12-28T02:48:54.475Z,1.16
2023-12-28T02:49:54.523Z,1.19
2023-12-28T02:50:54.454Z,1.20
2023-12-28T02:51:54.572Z,1.19
2023-12-28T02:52:54.515Z,1.12
2023-12-28T02:53:54.588Z,1.15
2023-12-28T02:54:54.657Z,1.20
2023-12-28T02:55:54.831Z,1.22
2023-12-28T02:56:54.732Z,1.22
2023-12-28T02:57:54.846Z,1.21
2023-12-28T02:58:54.815Z,1.25
2023-12-28T02:59:54.824Z,1.25
2023-12-28T03:00:54.991Z,1.33
2023-12-28T03:01:54.931Z,1.38
2023-12-28T03:02:54.988Z,1.37
2023-12-28T03:03:55.075Z,1.36
2023-12-28T03:04:55.050Z,1.38
2023-12-28T03:05:55.068Z,1.36
2023-12-28T03:06:55.151Z,1.29
2023-12-28T03:07:55.080Z,1.28
2023-12-28T03:08:55.123Z,1.28
2023-12-28T03:09:55.161Z,1.28
2023-12-28T03:10:55.195Z,1.32
2023-12-28T03:11:55.208Z,1.37
2023-12-28T03:12:55.274Z,1.37
2023-12-28T03:13:55.321Z,1.36
2023-12-28T03:14:55.370Z,1.38
2023-12-28T03:15:55.464Z,1.47
2023-12-28T03:16:55.459Z,1.48
2023-12-28T03:17:55.720Z,1.33
2023-12-28T03:18:55.632Z,1.30
2023-12-28T03:19:55.726Z,1.29
2023-12-28T03:20:55.609Z,1.19
2023-12-28T03:21:55.696Z,1.15
2023-12-28T03:22:55.642Z,1.20
2023-12-28T03:23:55.678Z,1.25
2023-12-28T03:24:55.874Z,1.29
2023-12-28T03:25:55.758Z,1.35
2023-12-28T03:26:55.799Z,1.38
2023-12-28T03:27:55.983Z,1.32
2023-12-28T03:28:55.893Z,1.25
2023-12-28T03:29:55.955Z,1.25
2023-12-28T03:30:56.057Z,1.29
2023-12-28T03:31:56.027Z,1.32
2023-12-28T03:32:56.085Z,1.38
2023-12-28T03:33:56.186Z,1.42
2023-12-28T03:34:56.102Z,1.40
2023-12-28T03:35:56.135Z,1.40
2023-12-28T03:36:56.271Z,1.38
2023-12-28T03:37:56.531Z,1.32
2023-12-28T03:38:56.275Z,1.24
2023-12-28T03:39:56.326Z,1.22
2023-12-28T03:40:56.295Z,1.29
2023-12-28T03:41:56.407Z,1.32
2023-12-28T03:42:56.512Z,1.33
2023-12-28T03:43:56.480Z,1.33
2023-12-28T03:44:56.759Z,1.33
2023-12-28T03:45:56.510Z,1.32
2023-12-28T03:46:56.594Z,1.33
2023-12-28T03:47:57.038Z,1.38
2023-12-28T03:48:56.872Z,1.47
2023-12-28T03:49:56.736Z,1.54
2023-12-28T03:50:56.672Z,1.59
2023-12-28T03:51:56.903Z,1.60
2023-12-28T03:52:56.752Z,1.60
2023-12-28T03:53:56.853Z,1.59
2023-12-28T03:54:56.943Z,1.62
2023-12-28T03:55:56.903Z,1.66
2023-12-28T03:56:56.949Z,1.67
2023-12-28T03:57:57.233Z,1.63
2023-12-28T03:58:57.066Z,1.60
2023-12-28T03:59:57.080Z,1.58
2023-12-28T04:00:57.156Z,1.50
2023-12-28T04:01:57.134Z,1.44
2023-12-28T04:02:57.188Z,1.44
2023-12-28T04:03:57.324Z,1.46
2023-12-28T04:04:57.342Z,1.47
2023-12-28T04:05:57.329Z,1.44
2023-12-28T04:06:57.364Z,1.43
2023-12-28T04:07:57.543Z,1.47
2023-12-28T04:08:57.456Z,1.50
2023-12-28T04:09:57.606Z,1.52
2023-12-28T04:10:57.608Z,1.54
2023-12-28T04:11:57.625Z,1.58
2023-12-28T04:12:57.675Z,1.57
2023-12-28T04:13:57.731Z,1.52
2023-12-28T04:14:57.799Z,1.52
2023-12-28T04:15:57.841Z,1.59
2023-12-28T04:16:57.884Z,1.59
2023-12-28T04:17:58.227Z,1.60
2023-12-28T04:18:58.023Z,1.61
2023-12-28T04:19:58.032Z,1.63
2023-12-28T04:20:57.984Z,1.65
2023-12-28T04:21:58.037Z,1.67
2023-12-28T04:22:58.061Z,1.68
2023-12-28T04:23:58.092Z,1.68
2023-12-28T04:24:58.214Z,1.67
2023-12-28T04:25:58.224Z,1.63
2023-12-28T04:26:58.262Z,1.53
2023-12-28T04:27:58.545Z,1.45
2023-12-28T04:28:58.332Z,1.37
2023-12-28T04:29:58.394Z,1.33
2023-12-28T04:30:58.492Z,1.31
2023-12-28T04:31:58.401Z,1.30
2023-12-28T04:32:58.480Z,1.32
2023-12-28T04:33:58.628Z,1.38
2023-12-28T04:34:58.613Z,1.36
2023-12-28T04:35:58.616Z,1.35
2023-12-28T04:36:58.768Z,1.30
2023-12-28T04:37:58.996Z,1.34
2023-12-28T04:38:58.771Z,1.32
2023-12-28T04:39:58.839Z,1.33
2023-12-28T04:40:58.924Z,1.33
2023-12-28T04:41:58.930Z,1.30
2023-12-28T04:42:58.998Z,1.32
2023-12-28T04:43:58.982Z,1.35
2023-12-28T04:44:59.006Z,1.35
2023-12-28T04:45:59.096Z,1.37
2023-12-28T04:46:59.067Z,1.38
2023-12-28T04:47:59.501Z,1.38
2023-12-28T04:48:59.276Z,1.33
2023-12-28T04:49:59.229Z,1.11
2023-12-28T04:50:59.256Z,0.85
2023-12-28T04:51:59.374Z,0.75
2023-12-28T04:52:59.351Z,0.63
2023-12-28T04:53:59.400Z,0.56
2023-12-28T04:54:59.467Z,0.43
2023-12-28T04:55:59.519Z,0.40
2023-12-28T04:57:07.436Z,0.24
2023-12-28T04:58:07.491Z,0.15
2023-12-28T04:59:07.469Z,0.08
2023-12-28T05:00:07.418Z,0.06
2023-12-28T05:01:07.548Z,0.03
2023-12-28T05:02:07.438Z,0.02
2023-12-28T05:03:07.572Z,0.10
2023-12-28T05:04:07.555Z,0.17
2023-12-28T05:05:07.445Z,0.22
2023-12-28T05:06:07.526Z,0.20
2023-12-28T05:07:07.483Z,0.08
2023-12-28T05:08:07.478Z,0.01
2023-12-28T05:09:07.478Z,-0.17
2023-12-28T05:10:07.482Z,-0.22
2023-12-28T05:11:07.499Z,-0.17
2023-12-28T05:12:07.466Z,-0.07
2023-12-28T05:13:07.638Z,0.03
2023-12-28T05:14:07.477Z,0.08
2023-12-28T05:15:07.484Z,0.12
2023-12-28T05:16:07.485Z,0.18
2023-12-28T05:17:07.494Z,0.28
2023-12-28T05:18:07.678Z,0.32
2023-12-28T05:19:07.624Z,0.26
2023-12-28T05:20:07.563Z,0.19
2023-12-28T05:21:07.516Z,0.16
2023-12-28T05:22:07.491Z,0.19
2023-12-28T05:23:07.488Z,0.25
2023-12-28T05:24:07.536Z,0.33
2023-12-28T05:25:07.523Z,0.44
2023-12-28T05:26:07.525Z,0.55
2023-12-28T05:27:07.502Z,0.61
2023-12-28T05:28:07.646Z,0.62
2023-12-28T05:29:07.538Z,0.67
2023-12-28T05:30:07.582Z,0.71
2023-12-28T05:31:07.634Z,0.75
2023-12-28T05:32:07.543Z,0.81
2023-12-28T05:33:07.580Z,0.87
2023-12-28T05:34:07.670Z,0.94
2023-12-28T05:35:07.565Z,0.95
2023-12-28T05:36:09.041Z,0.98
2023-12-28T05:37:07.532Z,0.86
2023-12-28T05:38:07.547Z,0.81
2023-12-28T05:39:07.549Z,0.75
2023-12-28T05:40:07.563Z,0.65
2023-12-28T05:41:07.572Z,0.36
2023-12-28T05:42:07.536Z,0.25
2023-12-28T05:43:07.580Z,0.09
2023-12-28T05:44:07.556Z,0.05
2023-12-28T05:45:07.573Z,0.07
2023-12-28T05:46:07.568Z,0.14
2023-12-28T05:47:07.559Z,0.22
2023-12-28T05:48:07.683Z,0.29
2023-12-28T05:49:07.801Z,0.36
2023-12-28T05:50:07.680Z,0.42
2023-12-28T05:51:07.588Z,0.47
2023-12-28T05:52:07.610Z,0.51
2023-12-28T05:53:07.584Z,0.51
2023-12-28T05:54:09.426Z,0.50
2023-12-28T05:55:07.598Z,0.37
2023-12-28T05:56:07.623Z,0.28
2023-12-28T05:57:07.624Z,0.21
2023-12-28T05:58:07.605Z,0.14
2023-12-28T05:59:07.580Z,0.07
2023-12-28T06:00:07.617Z,-0.07
2023-12-28T06:01:07.667Z,-0.13
2023-12-28T06:02:07.588Z,-0.14
2023-12-28T06:03:07.590Z,-0.19
2023-12-28T06:04:07.675Z,-0.30
2023-12-28T06:05:07.709Z,-0.30
2023-12-28T06:06:07.596Z,-0.25
2023-12-28T06:07:07.674Z,-0.27
2023-12-28T06:08:07.732Z,-0.28
2023-12-28T06:09:07.798Z,-0.20
2023-12-28T06:10:07.851Z,-0.14
2023-12-28T06:11:07.894Z,-0.05
2023-12-28T06:12:07.976Z,0.01
2023-12-28T06:13:07.992Z,0.11
2023-12-28T06:14:08.059Z,0.23
2023-12-28T06:15:08.121Z,0.30
2023-12-28T06:16:08.189Z,0.37
2023-12-28T06:17:08.138Z,0.41
2023-12-28T06:18:08.196Z,0.46
2023-12-28T06:19:08.321Z,0.49
2023-12-28T06:20:08.370Z,0.53
2023-12-28T06:21:08.305Z,0.59
2023-12-28T06:22:08.333Z,0.63
2023-12-28T06:23:08.380Z,0.67
2023-12-28T06:24:08.447Z,0.71
2023-12-28T06:25:08.494Z,0.71
2023-12-28T06:26:08.591Z,0.73
2023-12-28T06:27:08.666Z,0.75
2023-12-28T06:28:08.672Z,0.78
2023-12-28T06:29:08.673Z,0.81
2023-12-28T06:30:08.793Z,0.81
2023-12-28T06:31:08.824Z,0.80
2023-12-28T06:32:08.802Z,0.81
2023-12-28T06:33:08.938Z,0.83
2023-12-28T06:34:09.243Z,0.82
2023-12-28T06:35:08.881Z,0.82
2023-12-28T06:36:08.922Z,0.83
2023-12-28T06:37:08.972Z,0.81
2023-12-28T06:38:09.030Z,0.80
2023-12-28T06:39:09.091Z,0.78
2023-12-28T06:40:09.128Z,0.76
2023-12-28T06:41:09.189Z,0.72
2023-12-28T06:42:09.236Z,0.65
2023-12-28T06:43:09.280Z,0.64
2023-12-28T06:44:09.323Z,0.66
2023-12-28T06:45:09.396Z,0.68
2023-12-28T06:46:09.370Z,0.71
2023-12-28T06:47:09.472Z,0.73
2023-12-28T06:48:09.549Z,0.75
2023-12-28T06:49:11.584Z,0.73
2023-12-28T06:50:09.563Z,0.70
2023-12-28T06:51:09.574Z,0.71
2023-12-28T06:52:09.639Z,0.72
2023-12-28T06:53:09.655Z,0.72
2023-12-28T06:54:09.655Z,0.67
2023-12-28T06:55:09.713Z,0.64
2023-12-28T06:56:09.775Z,0.64
2023-12-28T06:57:09.828Z,0.66
2023-12-28T06:58:09.943Z,0.66
2023-12-28T06:59:09.938Z,0.69
2023-12-28T07:00:10.026Z,0.61
2023-12-28T07:01:10.151Z,0.56
2023-12-28T07:02:10.118Z,0.59
2023-12-28T07:03:10.140Z,0.64
2023-12-28T07:04:10.148Z,0.67
2023-12-28T07:05:10.217Z,0.73
2023-12-28T07:06:10.390Z,0.82
2023-12-28T07:07:10.249Z,0.88
2023-12-28T07:08:10.297Z,0.90
2023-12-28T07:09:10.353Z,0.91
2023-12-28T07:10:10.408Z,0.98
2023-12-28T07:11:10.437Z,1.07
2023-12-28T07:12:10.440Z,1.15
2023-12-28T07:13:10.552Z,1.04
2023-12-28T07:14:10.503Z,0.75
2023-12-28T07:15:10.548Z,0.60
2023-12-28T07:16:10.663Z,0.30
2023-12-28T07:17:10.670Z,0.23
2023-12-28T07:18:10.825Z,0.22
2023-12-28T07:19:10.847Z,0.18
2023-12-28T07:20:10.797Z,0.15
2023-12-28T07:21:10.998Z,0.12
2023-12-28T07:22:10.832Z,0.14
2023-12-28T07:23:10.836Z,0.17
2023-12-28T07:24:10.920Z,0.17
2023-12-28T07:25:10.927Z,0.24
2023-12-28T07:26:10.945Z,0.31
2023-12-28T07:27:11.008Z,0.22
2023-12-28T07:28:11.046Z,0.20
2023-12-28T07:29:11.108Z,0.08
2023-12-28T07:30:11.137Z,-0.03
2023-12-28T07:31:11.218Z,-0.16
2023-12-28T07:32:11.209Z,-0.27
2023-12-28T07:33:11.376Z,-0.24
2023-12-28T07:34:11.328Z,-0.16
2023-12-28T07:35:11.328Z,-0.08
2023-12-28T07:36:11.327Z,-0.00
2023-12-28T07:37:11.369Z,0.06
2023-12-28T07:38:11.392Z,0.15
2023-12-28T07:39:11.397Z,0.22
2023-12-28T07:40:11.455Z,0.33
2023-12-28T07:41:11.470Z,0.34
2023-12-28T07:42:11.508Z,0.41
2023-12-28T07:43:11.565Z,0.51
2023-12-28T07:44:11.590Z,0.61
2023-12-28T07:45:11.659Z,0.68
2023-12-28T07:46:11.692Z,0.73
2023-12-28T07:47:11.738Z,0.78
2023-12-28T07:48:11.923Z,0.83
2023-12-28T07:49:11.888Z,0.88
2023-12-28T07:50:11.804Z,0.92
2023-12-28T07:51:11.871Z,0.86
2023-12-28T07:52:11.883Z,0.78
2023-12-28T07:53:11.918Z,0.76
2023-12-28T07:54:11.969Z,0.75
2023-12-28T07:55:12.016Z,0.82
2023-12-28T07:56:12.014Z,0.90
2023-12-28T07:57:12.068Z,1.03
2023-12-28T07:58:12.128Z,1.09
2023-12-28T07:59:12.101Z,1.13
2023-12-28T08:00:12.248Z,1.19
2023-12-28T08:01:12.371Z,1.24
2023-12-28T08:02:12.249Z,1.28
2023-12-28T08:03:12.304Z,1.32
2023-12-28T08:04:12.496Z,1.34
2023-12-28T08:05:12.394Z,1.35
2023-12-28T08:06:12.516Z,1.36
2023-12-28T08:07:12.505Z,1.37
2023-12-28T08:08:12.509Z,1.38
2023-12-28T08:09:12.505Z,1.38
2023-12-28T08:10:12.559Z,1.43
2023-12-28T08:11:12.618Z,1.47
2023-12-28T08:12:12.572Z,1.49
2023-12-28T08:13:12.639Z,1.55
2023-12-28T08:14:12.643Z,1.58
2023-12-28T08:15:12.685Z,1.56
2023-12-28T08:16:12.726Z,1.43
2023-12-28T08:17:12.750Z,1.38
2023-12-28T08:18:12.825Z,1.42
2023-12-28T08:19:12.912Z,1.47
2023-12-28T08:20:12.834Z,1.54
2023-12-28T08:21:12.829Z,1.60
2023-12-28T08:22:12.906Z,1.61
2023-12-28T08:23:17.801Z,1.55
2023-12-28T08:24:13.939Z,1.55
2023-12-28T08:25:12.920Z,1.55
2023-12-28T08:26:12.907Z,1.59
2023-12-28T08:27:12.922Z,1.60
2023-12-28T08:28:12.913Z,1.64
2023-12-28T08:29:12.947Z,1.68
2023-12-28T08:30:12.966Z,1.73
2023-12-28T08:31:12.954Z,1.81
2023-12-28T08:32:13.076Z,1.88
2023-12-28T08:33:13.052Z,1.96
2023-12-28T08:34:13.025Z,1.96
2023-12-28T08:35:12.936Z,1.98
2023-12-28T08:36:12.938Z,2.00
2023-12-28T08:37:12.979Z,2.04
2023-12-28T08:38:13.117Z,2.04
2023-12-28T08:39:13.055Z,2.10
2023-12-28T08:40:13.104Z,2.14
2023-12-28T08:41:13.128Z,2.15
2023-12-28T08:42:13.293Z,2.18
2023-12-28T08:43:13.235Z,2.24
2023-12-28T08:44:13.391Z,2.28
2023-12-28T08:45:13.299Z,2.32
2023-12-28T08:46:13.370Z,2.36
2023-12-28T08:47:13.345Z,2.33
2023-12-28T08:48:13.578Z,2.29
2023-12-28T08:49:13.606Z,2.14
2023-12-28T08:50:13.605Z,2.01
2023-12-28T08:51:13.526Z,1.94
2023-12-28T08:52:13.649Z,1.89
2023-12-28T08:53:13.647Z,1.96
2023-12-28T08:54:13.657Z,2.09
2023-12-28T08:55:13.718Z,2.29
2023-12-28T08:56:13.854Z,2.68
2023-12-28T08:57:13.823Z,3.67
2023-12-28T08:58:13.889Z,5.53
2023-12-28T08:59:13.869Z,7.98
2023-12-28T09:00:13.848Z,10.64
2023-12-28T09:01:14.020Z,13.07
2023-12-28T09:02:13.951Z,15.10
2023-12-28T09:03:14.057Z,16.89
2023-12-28T09:04:14.076Z,18.14
2023-12-28T09:05:14.110Z,18.71
2023-12-28T09:06:14.219Z,19.44
2023-12-28T09:07:14.230Z,20.35
2023-12-28T09:08:14.195Z,21.10
2023-12-28T09:09:14.270Z,22.10
2023-12-28T09:10:14.275Z,22.68
2023-12-28T09:11:14.298Z,21.88
2023-12-28T09:12:14.382Z,21.29
2023-12-28T09:13:14.384Z,22.15
2023-12-28T09:14:14.457Z,24.28
2023-12-28T09:15:14.509Z,25.89
2023-12-28T09:16:14.636Z,26.02
2023-12-28T09:17:14.557Z,25.85
2023-12-28T09:18:14.702Z,25.71
2023-12-28T09:19:14.753Z,24.90
2023-12-28T09:20:14.706Z,25.47
2023-12-28T09:21:14.786Z,24.54
2023-12-28T09:22:14.811Z,22.02
2023-12-28T09:23:14.817Z,20.84
2023-12-28T09:24:14.863Z,20.86
2023-12-28T09:25:14.860Z,20.59
2023-12-28T09:26:14.903Z,19.17
2023-12-28T09:27:14.925Z,20.53
2023-12-28T09:28:14.935Z,23.14
2023-12-28T09:29:15.022Z,24.95
2023-12-28T09:30:15.084Z,26.53
2023-12-28T09:31:15.290Z,27.87
2023-12-28T09:32:15.105Z,29.07
2023-12-28T09:33:15.203Z,30.08
2023-12-28T09:34:15.224Z,29.56
2023-12-28T09:35:15.207Z,30.60
2023-12-28T09:36:15.228Z,30.68
2023-12-28T09:37:15.260Z,30.43
2023-12-28T09:38:15.346Z,30.88
2023-12-28T09:39:15.348Z,30.80
2023-12-28T09:40:15.396Z,30.68
2023-12-28T09:41:15.533Z,30.46
2023-12-28T09:42:15.460Z,29.28
2023-12-28T09:43:15.506Z,28.90
2023-12-28T09:44:15.551Z,26.77
2023-12-28T09:45:15.577Z,25.42
2023-12-28T09:46:15.625Z,24.61
2023-12-28T09:47:15.643Z,23.88
2023-12-28T09:48:15.813Z,23.10
2023-12-28T09:49:15.777Z,23.36
2023-12-28T09:50:15.768Z,23.87
2023-12-28T09:51:17.495Z,24.45
2023-12-28T09:52:15.838Z,25.61
2023-12-28T09:53:15.791Z,26.17
2023-12-28T09:54:15.842Z,27.14
2023-12-28T09:55:15.857Z,27.64
2023-12-28T09:56:15.865Z,28.76
2023-12-28T09:57:15.835Z,27.35
2023-12-28T09:58:15.890Z,26.29
2023-12-28T09:59:15.822Z,25.59
2023-12-28T10:00:15.840Z,24.46
2023-12-28T10:01:16.006Z,23.98
2023-12-28T10:02:15.869Z,23.56
2023-12-28T10:03:15.867Z,23.26
2023-12-28T10:04:15.857Z,22.85
2023-12-28T10:05:15.833Z,22.79
2023-12-28T10:06:15.917Z,23.56
2023-12-28T10:07:15.820Z,24.40
2023-12-28T10:08:15.827Z,24.76
2023-12-28T10:09:15.831Z,23.67
2023-12-28T10:10:15.842Z,23.42
2023-12-28T10:11:15.853Z,24.17
2023-12-28T10:12:15.864Z,24.67
2023-12-28T10:13:16.170Z,25.07
2023-12-28T10:14:16.654Z,25.55
2023-12-28T10:15:15.876Z,25.59
2023-12-28T10:16:15.875Z,26.42
2023-12-28T10:17:15.872Z,27.11
2023-12-28T10:18:16.000Z,27.20
2023-12-28T10:19:15.974Z,26.47
2023-12-28T10:20:15.880Z,26.34
2023-12-28T10:21:15.902Z,25.42
2023-12-28T10:22:15.888Z,23.46
2023-12-28T10:23:15.879Z,21.46
2023-12-28T10:24:15.864Z,20.36
2023-12-28T10:25:15.894Z,20.81
2023-12-28T10:26:15.865Z,21.48
2023-12-28T10:27:15.893Z,21.34
2023-12-28T10:28:15.902Z,21.66
2023-12-28T10:29:15.917Z,22.66
2023-12-28T10:30:15.910Z,23.35
2023-12-28T10:31:16.123Z,23.86
2023-12-28T10:32:15.870Z,23.74
2023-12-28T10:33:16.004Z,23.40
2023-12-28T10:35:15.967Z,23.22
2023-12-28T10:36:15.929Z,23.10
2023-12-28T10:37:15.896Z,22.51
2023-12-28T10:38:15.910Z,21.64
2023-12-28T10:39:15.893Z,21.29
2023-12-28T10:40:15.902Z,21.28
2023-12-28T10:41:15.924Z,20.14
2023-12-28T10:42:15.933Z,18.45
2023-12-28T10:43:15.957Z,17.55
2023-12-28T10:44:15.913Z,16.99
2023-12-28T10:45:15.904Z,17.37
2023-12-28T10:46:15.916Z,17.71
2023-12-28T10:47:15.930Z,18.09
2023-12-28T10:48:16.045Z,17.63
2023-12-28T10:49:16.144Z,17.71
2023-12-28T10:50:16.019Z,18.12
2023-12-28T10:51:15.952Z,18.11
2023-12-28T10:52:15.967Z,17.87
2023-12-28T10:53:15.926Z,17.36
2023-12-28T10:54:15.915Z,17.79
2023-12-28T10:55:18.461Z,18.84
2023-12-28T10:56:16.012Z,19.54
2023-12-28T10:57:15.947Z,21.37
2023-12-28T10:58:15.942Z,22.22
2023-12-28T10:59:15.941Z,23.09
2023-12-28T11:00:15.935Z,24.15
2023-12-28T11:01:16.032Z,24.05
2023-12-28T11:02:15.959Z,23.29
2023-12-28T11:03:16.013Z,22.37
2023-12-28T11:04:16.047Z,21.29
2023-12-28T11:05:16.006Z,20.73
2023-12-28T11:06:15.945Z,21.28
2023-12-28T11:07:15.942Z,22.78
2023-12-28T11:08:15.946Z,22.63
2023-12-28T11:09:15.938Z,22.22
2023-12-28T11:10:15.961Z,22.27
2023-12-28T11:11:15.942Z,22.88
2023-12-28T11:12:15.957Z,23.89
2023-12-28T11:13:16.018Z,23.66
2023-12-28T11:14:15.970Z,22.99
2023-12-28T11:15:15.967Z,22.93
2023-12-28T11:16:15.999Z,23.47
2023-12-28T11:17:16.124Z,23.96
2023-12-28T11:18:16.042Z,24.04
2023-12-28T11:19:16.083Z,23.55
2023-12-28T11:20:16.026Z,23.68
2023-12-28T11:21:16.003Z,23.87
2023-12-28T11:22:15.993Z,23.87
2023-12-28T11:23:15.990Z,24.57
2023-12-28T11:24:16.005Z,25.09
2023-12-28T11:25:16.000Z,26.04
2023-12-28T11:26:16.002Z,27.43
2023-12-28T11:27:16.024Z,28.33
2023-12-28T11:28:16.006Z,28.15
2023-12-28T11:29:16.019Z,27.59
2023-12-28T11:30:16.101Z,27.27
2023-12-28T11:31:16.112Z,27.57
2023-12-28T11:32:16.040Z,26.83
2023-12-28T11:33:16.090Z,27.84
2023-12-28T11:34:16.032Z,27.66
2023-12-28T11:35:16.217Z,26.44
2023-12-28T11:36:16.007Z,24.84
2023-12-28T11:37:16.010Z,24.41
2023-12-28T11:38:16.017Z,24.15
2023-12-28T11:39:16.022Z,24.40
2023-12-28T11:40:16.020Z,24.96
2023-12-28T11:41:16.040Z,25.39
2023-12-28T11:42:16.065Z,26.13
2023-12-28T11:43:16.049Z,25.95
2023-12-28T11:44:16.032Z,26.71
2023-12-28T11:45:16.046Z,26.25
2023-12-28T11:46:16.024Z,25.95
2023-12-28T11:47:16.040Z,26.15
2023-12-28T11:48:16.196Z,25.44
2023-12-28T11:49:16.175Z,24.98
2023-12-28T11:50:16.056Z,24.46
2023-12-28T11:51:16.027Z,23.68
2023-12-28T11:52:16.056Z,24.83
2023-12-28T11:53:16.104Z,26.48
2023-12-28T11:54:16.131Z,27.18
2023-12-28T11:55:16.173Z,26.39
2023-12-28T11:56:16.247Z,25.42
2023-12-28T11:57:16.274Z,24.53
2023-12-28T11:58:16.307Z,23.23
2023-12-28T11:59:16.381Z,22.47
2023-12-28T12:00:16.439Z,22.12
2023-12-28T12:01:16.505Z,21.21
2023-12-28T12:02:16.487Z,20.51
2023-12-28T12:03:16.605Z,20.22
2023-12-28T12:04:16.718Z,19.50
2023-12-28T12:05:16.645Z,18.60
2023-12-28T12:06:16.867Z,17.76
2023-12-28T12:07:16.814Z,17.14
2023-12-28T12:08:16.738Z,16.66
2023-12-28T12:09:16.799Z,16.24
2023-12-28T12:10:16.835Z,15.94
2023-12-28T12:11:16.830Z,15.29
2023-12-28T12:12:16.871Z,14.42
2023-12-28T12:13:16.950Z,14.11
2023-12-28T12:14:16.958Z,14.12
2023-12-28T12:15:17.038Z,13.92
2023-12-28T12:16:17.019Z,14.14
2023-12-28T12:17:17.040Z,14.43
2023-12-28T12:18:17.144Z,14.71
2023-12-28T12:19:17.205Z,14.72
2023-12-28T12:20:17.175Z,14.86
2023-12-28T12:21:17.209Z,15.03
2023-12-28T12:22:17.278Z,15.22
2023-12-28T12:23:17.323Z,15.69
2023-12-28T12:24:17.358Z,16.21
2023-12-28T12:25:17.386Z,16.95
2023-12-28T12:26:17.396Z,17.76
2023-12-28T12:27:17.447Z,17.88
2023-12-28T12:28:17.546Z,17.93
2023-12-28T12:29:19.801Z,17.98
2023-12-28T12:30:17.669Z,18.03
2023-12-28T12:31:17.609Z,17.97
2023-12-28T12:32:17.510Z,17.95
2023-12-28T12:33:17.563Z,18.34
2023-12-28T12:34:17.717Z,18.96
2023-12-28T12:35:17.584Z,19.03
2023-12-28T12:36:17.521Z,18.52
2023-12-28T12:37:17.538Z,18.64
2023-12-28T12:38:17.519Z,18.57
2023-12-28T12:39:17.525Z,18.24
2023-12-28T12:40:17.580Z,17.85
2023-12-28T12:41:17.579Z,17.51
2023-12-28T12:42:17.541Z,16.90
2023-12-28T12:43:17.617Z,16.28
2023-12-28T12:44:17.543Z,15.22
2023-12-28T12:45:17.616Z,14.20
2023-12-28T12:46:17.622Z,13.96
2023-12-28T12:47:17.545Z,13.99
2023-12-28T12:48:17.843Z,14.10
2023-12-28T12:49:17.887Z,14.30
2023-12-28T12:50:17.534Z,14.59
2023-12-28T12:51:17.557Z,14.88
2023-12-28T12:52:17.581Z,15.04
2023-12-28T12:53:17.530Z,15.09
2023-12-28T12:54:17.550Z,15.23
2023-12-28T12:55:17.575Z,15.28
2023-12-28T12:56:17.559Z,15.15
2023-12-28T12:57:17.601Z,15.20
2023-12-28T12:58:17.588Z,15.07
2023-12-28T12:59:17.572Z,15.07
2023-12-28T13:00:17.566Z,15.79
2023-12-28T13:01:17.638Z,16.12
2023-12-28T13:02:17.570Z,16.21
2023-12-28T13:03:17.594Z,16.31
2023-12-28T13:04:17.663Z,16.16
2023-12-28T13:05:17.690Z,16.08
2023-12-28T13:06:17.586Z,16.15
2023-12-28T13:07:17.579Z,15.98
2023-12-28T13:08:17.566Z,16.01
2023-12-28T13:09:17.653Z,16.05
2023-12-28T13:10:17.586Z,16.77
2023-12-28T13:11:17.593Z,16.87